sensor_id;sensor_type;location;lat;lon;timestamp;P1;durP1;ratioP1;P2;durP2;ratioP2
25913;SDS011;13718;50.922;5.346;2022-07-22T00:01:02;18.45;;;5.22;;
25913;SDS011;13718;50.922;5.346;2022-07-22T00:03:28;20.40;;;5.28;;
25913;SDS011;13718;50.922;5.346;2022-07-22T00:05:53;19.88;;;5.05;;
25913;SDS011;13718;50.922;5.346;2022-07-22T00:08:19;19.90;;;5.38;;
25913;SDS011;13718;50.922;5.346;2022-07-22T00:10:45;21.73;;;4.43;;
25913;SDS011;13718;50.922;5.346;2022-07-22T00:13:10;25.23;;;4.72;;
25913;SDS011;13718;50.922;5.346;2022-07-22T00:15:36;14.95;;;5.38;;
25913;SDS011;13718;50.922;5.346;2022-07-22T00:18:02;20.65;;;4.75;;
25913;SDS011;13718;50.922;5.346;2022-07-22T00:20:28;18.48;;;5.40;;
25913;SDS011;13718;50.922;5.346;2022-07-22T00:22:53;17.08;;;4.75;;
25913;SDS011;13718;50.922;5.346;2022-07-22T00:25:19;18.13;;;5.00;;
25913;SDS011;13718;50.922;5.346;2022-07-22T00:27:44;15.30;;;5.47;;
25913;SDS011;13718;50.922;5.346;2022-07-22T00:30:10;13.85;;;5.25;;
25913;SDS011;13718;50.922;5.346;2022-07-22T00:32:36;14.90;;;5.55;;
25913;SDS011;13718;50.922;5.346;2022-07-22T00:35:02;17.40;;;5.30;;
25913;SDS011;13718;50.922;5.346;2022-07-22T00:37:28;17.48;;;5.65;;
25913;SDS011;13718;50.922;5.346;2022-07-22T00:39:54;16.90;;;4.88;;
25913;SDS011;13718;50.922;5.346;2022-07-22T00:42:19;24.65;;;5.30;;
25913;SDS011;13718;50.922;5.346;2022-07-22T00:44:45;23.42;;;5.07;;
25913;SDS011;13718;50.922;5.346;2022-07-22T00:47:10;19.20;;;5.32;;
25913;SDS011;13718;50.922;5.346;2022-07-22T00:49:36;16.38;;;5.70;;
25913;SDS011;13718;50.922;5.346;2022-07-22T00:52:02;12.43;;;4.65;;
25913;SDS011;13718;50.922;5.346;2022-07-22T00:54:29;22.25;;;5.90;;
25913;SDS011;13718;50.922;5.346;2022-07-22T00:56:55;17.98;;;5.28;;
25913;SDS011;13718;50.922;5.346;2022-07-22T00:59:21;21.55;;;5.90;;
25913;SDS011;13718;50.922;5.346;2022-07-22T01:01:46;14.80;;;5.00;;
25913;SDS011;13718;50.922;5.346;2022-07-22T01:04:12;13.55;;;5.22;;
25913;SDS011;13718;50.922;5.346;2022-07-22T01:06:38;13.30;;;5.40;;
25913;SDS011;13718;50.922;5.346;2022-07-22T01:09:03;18.92;;;5.38;;
25913;SDS011;13718;50.922;5.346;2022-07-22T01:11:30;16.92;;;5.32;;
25913;SDS011;13718;50.922;5.346;2022-07-22T01:13:56;12.55;;;4.65;;
25913;SDS011;13718;50.922;5.346;2022-07-22T01:16:21;13.82;;;5.03;;
25913;SDS011;13718;50.922;5.346;2022-07-22T01:18:48;13.18;;;4.68;;
25913;SDS011;13718;50.922;5.346;2022-07-22T01:21:13;13.05;;;4.68;;
25913;SDS011;13718;50.922;5.346;2022-07-22T01:23:41;18.50;;;4.90;;
25913;SDS011;13718;50.922;5.346;2022-07-22T01:26:07;15.38;;;4.30;;
25913;SDS011;13718;50.922;5.346;2022-07-22T01:28:33;14.55;;;4.05;;
25913;SDS011;13718;50.922;5.346;2022-07-22T01:30:58;14.55;;;3.88;;
25913;SDS011;13718;50.922;5.346;2022-07-22T01:33:24;12.98;;;4.25;;
25913;SDS011;13718;50.922;5.346;2022-07-22T01:35:50;13.23;;;3.80;;
25913;SDS011;13718;50.922;5.346;2022-07-22T01:38:17;16.10;;;4.78;;
25913;SDS011;13718;50.922;5.346;2022-07-22T01:40:43;16.52;;;4.32;;
25913;SDS011;13718;50.922;5.346;2022-07-22T01:43:10;16.38;;;4.68;;
25913;SDS011;13718;50.922;5.346;2022-07-22T01:45:36;15.18;;;4.20;;
25913;SDS011;13718;50.922;5.346;2022-07-22T01:48:02;13.57;;;4.50;;
25913;SDS011;13718;50.922;5.346;2022-07-22T01:50:28;12.43;;;4.20;;
25913;SDS011;13718;50.922;5.346;2022-07-22T01:52:55;15.82;;;4.85;;
25913;SDS011;13718;50.922;5.346;2022-07-22T01:55:20;14.07;;;4.82;;
25913;SDS011;13718;50.922;5.346;2022-07-22T01:57:46;15.05;;;4.40;;
25913;SDS011;13718;50.922;5.346;2022-07-22T02:00:12;11.18;;;4.43;;
25913;SDS011;13718;50.922;5.346;2022-07-22T02:02:38;12.50;;;4.20;;
25913;SDS011;13718;50.922;5.346;2022-07-22T02:05:06;15.25;;;4.20;;
25913;SDS011;13718;50.922;5.346;2022-07-22T02:07:33;17.30;;;5.00;;
25913;SDS011;13718;50.922;5.346;2022-07-22T02:09:59;16.55;;;4.55;;
25913;SDS011;13718;50.922;5.346;2022-07-22T02:12:25;13.18;;;4.78;;
25913;SDS011;13718;50.922;5.346;2022-07-22T02:14:51;17.77;;;4.63;;
25913;SDS011;13718;50.922;5.346;2022-07-22T02:17:16;14.77;;;4.80;;
25913;SDS011;13718;50.922;5.346;2022-07-22T02:19:42;14.43;;;4.93;;
25913;SDS011;13718;50.922;5.346;2022-07-22T02:22:08;11.43;;;4.55;;
25913;SDS011;13718;50.922;5.346;2022-07-22T02:24:34;17.25;;;5.30;;
25913;SDS011;13718;50.922;5.346;2022-07-22T02:27:00;16.30;;;4.97;;
25913;SDS011;13718;50.922;5.346;2022-07-22T02:29:26;13.50;;;4.60;;
25913;SDS011;13718;50.922;5.346;2022-07-22T02:31:52;12.68;;;5.20;;
25913;SDS011;13718;50.922;5.346;2022-07-22T02:34:18;13.48;;;5.22;;
25913;SDS011;13718;50.922;5.346;2022-07-22T02:36:43;14.70;;;5.80;;
25913;SDS011;13718;50.922;5.346;2022-07-22T02:39:09;14.82;;;4.55;;
25913;SDS011;13718;50.922;5.346;2022-07-22T02:41:35;19.13;;;5.70;;
25913;SDS011;13718;50.922;5.346;2022-07-22T02:44:00;15.27;;;5.50;;
25913;SDS011;13718;50.922;5.346;2022-07-22T02:46:26;16.85;;;6.22;;
25913;SDS011;13718;50.922;5.346;2022-07-22T02:48:55;11.13;;;4.70;;
25913;SDS011;13718;50.922;5.346;2022-07-22T02:51:21;13.05;;;5.72;;
25913;SDS011;13718;50.922;5.346;2022-07-22T02:53:47;14.90;;;5.65;;
25913;SDS011;13718;50.922;5.346;2022-07-22T02:56:12;11.52;;;5.25;;
25913;SDS011;13718;50.922;5.346;2022-07-22T02:58:39;15.05;;;5.07;;
25913;SDS011;13718;50.922;5.346;2022-07-22T03:01:05;19.38;;;5.95;;
25913;SDS011;13718;50.922;5.346;2022-07-22T03:03:30;12.60;;;6.05;;
25913;SDS011;13718;50.922;5.346;2022-07-22T03:05:56;16.23;;;5.13;;
25913;SDS011;13718;50.922;5.346;2022-07-22T03:08:22;17.10;;;6.00;;
25913;SDS011;13718;50.922;5.346;2022-07-22T03:10:48;18.17;;;6.75;;
25913;SDS011;13718;50.922;5.346;2022-07-22T03:13:13;14.77;;;6.20;;
25913;SDS011;13718;50.922;5.346;2022-07-22T03:15:39;12.38;;;6.00;;
25913;SDS011;13718;50.922;5.346;2022-07-22T03:18:04;14.90;;;6.13;;
25913;SDS011;13718;50.922;5.346;2022-07-22T03:20:30;14.57;;;5.93;;
25913;SDS011;13718;50.922;5.346;2022-07-22T03:22:56;13.98;;;5.93;;
25913;SDS011;13718;50.922;5.346;2022-07-22T03:25:21;17.08;;;5.95;;
25913;SDS011;13718;50.922;5.346;2022-07-22T03:27:47;14.82;;;5.93;;
25913;SDS011;13718;50.922;5.346;2022-07-22T03:30:13;16.75;;;6.30;;
25913;SDS011;13718;50.922;5.346;2022-07-22T03:32:38;15.60;;;5.82;;
25913;SDS011;13718;50.922;5.346;2022-07-22T03:35:09;16.67;;;5.90;;
25913;SDS011;13718;50.922;5.346;2022-07-22T03:37:35;15.25;;;6.35;;
25913;SDS011;13718;50.922;5.346;2022-07-22T03:40:01;15.75;;;6.40;;
25913;SDS011;13718;50.922;5.346;2022-07-22T03:42:27;12.88;;;5.85;;
25913;SDS011;13718;50.922;5.346;2022-07-22T03:44:52;19.40;;;6.30;;
25913;SDS011;13718;50.922;5.346;2022-07-22T03:47:19;17.73;;;6.35;;
25913;SDS011;13718;50.922;5.346;2022-07-22T03:49:45;14.73;;;5.85;;
25913;SDS011;13718;50.922;5.346;2022-07-22T03:52:10;16.15;;;6.18;;
25913;SDS011;13718;50.922;5.346;2022-07-22T03:54:37;13.07;;;5.93;;
25913;SDS011;13718;50.922;5.346;2022-07-22T03:57:03;12.98;;;5.55;;
25913;SDS011;13718;50.922;5.346;2022-07-22T03:59:29;16.05;;;5.50;;
25913;SDS011;13718;50.922;5.346;2022-07-22T04:01:54;16.30;;;5.93;;
25913;SDS011;13718;50.922;5.346;2022-07-22T04:04:20;15.80;;;5.93;;
25913;SDS011;13718;50.922;5.346;2022-07-22T04:06:45;15.70;;;6.10;;
25913;SDS011;13718;50.922;5.346;2022-07-22T04:09:11;17.05;;;5.82;;
25913;SDS011;13718;50.922;5.346;2022-07-22T04:11:37;12.80;;;5.70;;
25913;SDS011;13718;50.922;5.346;2022-07-22T04:14:02;15.48;;;6.43;;
25913;SDS011;13718;50.922;5.346;2022-07-22T04:16:28;16.45;;;5.85;;
25913;SDS011;13718;50.922;5.346;2022-07-22T04:18:53;18.70;;;6.50;;
25913;SDS011;13718;50.922;5.346;2022-07-22T04:21:19;16.65;;;6.57;;
25913;SDS011;13718;50.922;5.346;2022-07-22T04:23:45;15.48;;;6.35;;
25913;SDS011;13718;50.922;5.346;2022-07-22T04:26:10;15.40;;;5.35;;
25913;SDS011;13718;50.922;5.346;2022-07-22T04:28:36;13.65;;;5.85;;
25913;SDS011;13718;50.922;5.346;2022-07-22T04:31:02;17.75;;;6.63;;
25913;SDS011;13718;50.922;5.346;2022-07-22T04:33:28;20.38;;;6.97;;
25913;SDS011;13718;50.922;5.346;2022-07-22T04:35:54;13.15;;;5.55;;
25913;SDS011;13718;50.922;5.346;2022-07-22T04:38:20;15.02;;;6.28;;
25913;SDS011;13718;50.922;5.346;2022-07-22T04:40:46;15.57;;;6.47;;
25913;SDS011;13718;50.922;5.346;2022-07-22T04:43:11;16.35;;;6.18;;
25913;SDS011;13718;50.922;5.346;2022-07-22T04:45:37;16.52;;;6.00;;
25913;SDS011;13718;50.922;5.346;2022-07-22T04:48:02;16.17;;;6.72;;
25913;SDS011;13718;50.922;5.346;2022-07-22T04:50:28;15.35;;;6.90;;
25913;SDS011;13718;50.922;5.346;2022-07-22T04:52:54;17.00;;;6.13;;
25913;SDS011;13718;50.922;5.346;2022-07-22T04:55:19;17.05;;;6.68;;
25913;SDS011;13718;50.922;5.346;2022-07-22T04:57:45;13.90;;;6.57;;
25913;SDS011;13718;50.922;5.346;2022-07-22T05:00:11;15.63;;;6.88;;
25913;SDS011;13718;50.922;5.346;2022-07-22T05:02:37;14.65;;;6.93;;
25913;SDS011;13718;50.922;5.346;2022-07-22T05:05:03;15.18;;;6.65;;
25913;SDS011;13718;50.922;5.346;2022-07-22T05:07:29;15.32;;;6.82;;
25913;SDS011;13718;50.922;5.346;2022-07-22T05:09:54;16.65;;;6.55;;
25913;SDS011;13718;50.922;5.346;2022-07-22T05:12:20;15.98;;;6.45;;
25913;SDS011;13718;50.922;5.346;2022-07-22T05:14:45;15.40;;;6.55;;
25913;SDS011;13718;50.922;5.346;2022-07-22T05:17:11;13.43;;;5.95;;
25913;SDS011;13718;50.922;5.346;2022-07-22T05:19:37;16.88;;;6.70;;
25913;SDS011;13718;50.922;5.346;2022-07-22T05:22:04;14.23;;;6.03;;
25913;SDS011;13718;50.922;5.346;2022-07-22T05:24:31;12.07;;;6.15;;
25913;SDS011;13718;50.922;5.346;2022-07-22T05:26:56;13.38;;;5.47;;
25913;SDS011;13718;50.922;5.346;2022-07-22T05:29:22;15.35;;;5.40;;
25913;SDS011;13718;50.922;5.346;2022-07-22T05:31:48;13.25;;;4.95;;
25913;SDS011;13718;50.922;5.346;2022-07-22T05:34:13;13.10;;;4.65;;
25913;SDS011;13718;50.922;5.346;2022-07-22T05:36:39;12.00;;;4.72;;
25913;SDS011;13718;50.922;5.346;2022-07-22T05:39:05;10.05;;;4.25;;
25913;SDS011;13718;50.922;5.346;2022-07-22T05:41:30;9.25;;;3.88;;
25913;SDS011;13718;50.922;5.346;2022-07-22T05:43:56;6.65;;;3.22;;
25913;SDS011;13718;50.922;5.346;2022-07-22T05:46:22;6.75;;;2.83;;
25913;SDS011;13718;50.922;5.346;2022-07-22T05:48:47;5.35;;;2.50;;
25913;SDS011;13718;50.922;5.346;2022-07-22T05:51:13;6.20;;;2.78;;
25913;SDS011;13718;50.922;5.346;2022-07-22T05:53:39;3.92;;;2.00;;
25913;SDS011;13718;50.922;5.346;2022-07-22T05:56:06;6.80;;;2.25;;
25913;SDS011;13718;50.922;5.346;2022-07-22T05:58:33;8.00;;;2.38;;
25913;SDS011;13718;50.922;5.346;2022-07-22T06:00:59;9.27;;;2.30;;
25913;SDS011;13718;50.922;5.346;2022-07-22T06:03:25;10.93;;;2.55;;
25913;SDS011;13718;50.922;5.346;2022-07-22T06:05:50;6.57;;;2.22;;
25913;SDS011;13718;50.922;5.346;2022-07-22T06:08:16;4.50;;;1.80;;
25913;SDS011;13718;50.922;5.346;2022-07-22T06:10:42;3.08;;;1.80;;
25913;SDS011;13718;50.922;5.346;2022-07-22T06:13:08;6.97;;;1.73;;
25913;SDS011;13718;50.922;5.346;2022-07-22T06:15:33;6.95;;;1.85;;
25913;SDS011;13718;50.922;5.346;2022-07-22T06:17:59;3.67;;;1.50;;
25913;SDS011;13718;50.922;5.346;2022-07-22T06:20:24;3.47;;;1.40;;
25913;SDS011;13718;50.922;5.346;2022-07-22T06:22:50;4.90;;;1.30;;
25913;SDS011;13718;50.922;5.346;2022-07-22T06:25:16;4.22;;;1.50;;
25913;SDS011;13718;50.922;5.346;2022-07-22T06:27:41;4.43;;;1.30;;
25913;SDS011;13718;50.922;5.346;2022-07-22T06:30:07;3.58;;;1.40;;
25913;SDS011;13718;50.922;5.346;2022-07-22T06:32:33;2.40;;;1.45;;
25913;SDS011;13718;50.922;5.346;2022-07-22T06:34:59;6.85;;;1.70;;
25913;SDS011;13718;50.922;5.346;2022-07-22T06:37:24;6.13;;;1.20;;
25913;SDS011;13718;50.922;5.346;2022-07-22T06:39:50;4.57;;;1.30;;
25913;SDS011;13718;50.922;5.346;2022-07-22T06:42:16;5.63;;;1.55;;
25913;SDS011;13718;50.922;5.346;2022-07-22T06:44:41;3.63;;;1.33;;
25913;SDS011;13718;50.922;5.346;2022-07-22T06:47:07;2.65;;;1.40;;
25913;SDS011;13718;50.922;5.346;2022-07-22T06:49:32;5.90;;;1.77;;
25913;SDS011;13718;50.922;5.346;2022-07-22T06:51:58;3.22;;;1.58;;
25913;SDS011;13718;50.922;5.346;2022-07-22T06:54:23;4.32;;;1.80;;
25913;SDS011;13718;50.922;5.346;2022-07-22T06:56:49;3.55;;;1.35;;
25913;SDS011;13718;50.922;5.346;2022-07-22T06:59:15;2.53;;;1.20;;
25913;SDS011;13718;50.922;5.346;2022-07-22T07:01:41;4.07;;;1.30;;
25913;SDS011;13718;50.922;5.346;2022-07-22T07:04:06;3.28;;;1.20;;
25913;SDS011;13718;50.922;5.346;2022-07-22T07:06:32;5.18;;;1.40;;
25913;SDS011;13718;50.922;5.346;2022-07-22T07:08:58;5.90;;;1.63;;
25913;SDS011;13718;50.922;5.346;2022-07-22T07:11:23;2.33;;;1.20;;
25913;SDS011;13718;50.922;5.346;2022-07-22T07:13:50;4.88;;;1.20;;
25913;SDS011;13718;50.922;5.346;2022-07-22T07:16:16;2.50;;;1.50;;
25913;SDS011;13718;50.922;5.346;2022-07-22T07:18:41;5.25;;;1.70;;
25913;SDS011;13718;50.922;5.346;2022-07-22T07:21:08;2.78;;;1.20;;
25913;SDS011;13718;50.922;5.346;2022-07-22T07:23:33;5.35;;;1.30;;
25913;SDS011;13718;50.922;5.346;2022-07-22T07:25:59;3.80;;;1.35;;
25913;SDS011;13718;50.922;5.346;2022-07-22T07:28:24;2.47;;;1.40;;
25913;SDS011;13718;50.922;5.346;2022-07-22T07:30:50;5.55;;;1.60;;
25913;SDS011;13718;50.922;5.346;2022-07-22T07:33:16;5.57;;;1.27;;
25913;SDS011;13718;50.922;5.346;2022-07-22T07:35:42;4.40;;;1.33;;
25913;SDS011;13718;50.922;5.346;2022-07-22T07:38:07;2.25;;;1.13;;
25913;SDS011;13718;50.922;5.346;2022-07-22T07:40:33;5.68;;;1.30;;
25913;SDS011;13718;50.922;5.346;2022-07-22T07:42:59;3.78;;;1.23;;
25913;SDS011;13718;50.922;5.346;2022-07-22T07:45:24;3.63;;;1.17;;
25913;SDS011;13718;50.922;5.346;2022-07-22T07:47:50;5.13;;;1.58;;
25913;SDS011;13718;50.922;5.346;2022-07-22T07:50:16;4.68;;;1.50;;
25913;SDS011;13718;50.922;5.346;2022-07-22T07:52:42;2.75;;;1.17;;
25913;SDS011;13718;50.922;5.346;2022-07-22T07:55:10;3.78;;;1.20;;
25913;SDS011;13718;50.922;5.346;2022-07-22T07:57:37;3.38;;;1.33;;
25913;SDS011;13718;50.922;5.346;2022-07-22T08:00:04;4.65;;;1.58;;
25913;SDS011;13718;50.922;5.346;2022-07-22T08:02:33;3.88;;;1.20;;
25913;SDS011;13718;50.922;5.346;2022-07-22T08:04:58;4.45;;;1.70;;
25913;SDS011;13718;50.922;5.346;2022-07-22T08:07:24;3.25;;;1.20;;
25913;SDS011;13718;50.922;5.346;2022-07-22T08:09:50;3.25;;;1.10;;
25913;SDS011;13718;50.922;5.346;2022-07-22T08:12:16;6.03;;;1.33;;
25913;SDS011;13718;50.922;5.346;2022-07-22T08:14:41;3.53;;;1.23;;
25913;SDS011;13718;50.922;5.346;2022-07-22T08:17:07;3.95;;;1.38;;
25913;SDS011;13718;50.922;5.346;2022-07-22T08:19:32;4.55;;;1.30;;
25913;SDS011;13718;50.922;5.346;2022-07-22T08:21:58;2.10;;;1.10;;
25913;SDS011;13718;50.922;5.346;2022-07-22T08:24:24;3.90;;;1.30;;
25913;SDS011;13718;50.922;5.346;2022-07-22T08:26:49;5.05;;;1.55;;
25913;SDS011;13718;50.922;5.346;2022-07-22T08:29:15;5.28;;;1.20;;
25913;SDS011;13718;50.922;5.346;2022-07-22T08:31:41;4.00;;;1.40;;
25913;SDS011;13718;50.922;5.346;2022-07-22T08:34:06;3.30;;;1.30;;
25913;SDS011;13718;50.922;5.346;2022-07-22T08:36:32;3.95;;;1.48;;
25913;SDS011;13718;50.922;5.346;2022-07-22T08:38:58;4.80;;;1.52;;
25913;SDS011;13718;50.922;5.346;2022-07-22T08:41:24;3.42;;;1.30;;
25913;SDS011;13718;50.922;5.346;2022-07-22T08:43:50;4.13;;;1.48;;
25913;SDS011;13718;50.922;5.346;2022-07-22T08:46:16;3.97;;;1.30;;
25913;SDS011;13718;50.922;5.346;2022-07-22T08:48:42;5.13;;;1.52;;
25913;SDS011;13718;50.922;5.346;2022-07-22T08:51:09;3.75;;;1.70;;
25913;SDS011;13718;50.922;5.346;2022-07-22T08:53:34;5.28;;;1.67;;
25913;SDS011;13718;50.922;5.346;2022-07-22T08:56:00;4.63;;;1.65;;
25913;SDS011;13718;50.922;5.346;2022-07-22T08:58:26;5.40;;;1.48;;
25913;SDS011;13718;50.922;5.346;2022-07-22T09:03:51;4.57;;;1.65;;
25913;SDS011;13718;50.922;5.346;2022-07-22T09:06:24;5.77;;;1.77;;
25913;SDS011;13718;50.922;5.346;2022-07-22T09:08:55;5.93;;;1.80;;
25913;SDS011;13718;50.922;5.346;2022-07-22T09:11:27;5.82;;;1.85;;
25913;SDS011;13718;50.922;5.346;2022-07-22T09:13:54;8.38;;;1.80;;
25913;SDS011;13718;50.922;5.346;2022-07-22T09:16:40;5.82;;;1.90;;
25913;SDS011;13718;50.922;5.346;2022-07-22T09:19:07;2.63;;;1.55;;
25913;SDS011;13718;50.922;5.346;2022-07-22T09:21:34;4.38;;;1.80;;
25913;SDS011;13718;50.922;5.346;2022-07-22T09:24:02;6.03;;;1.70;;
25913;SDS011;13718;50.922;5.346;2022-07-22T09:26:32;2.78;;;1.40;;
25913;SDS011;13718;50.922;5.346;2022-07-22T09:29:05;4.18;;;1.40;;
25913;SDS011;13718;50.922;5.346;2022-07-22T09:31:32;5.93;;;1.88;;
25913;SDS011;13718;50.922;5.346;2022-07-22T09:33:59;5.75;;;1.85;;
25913;SDS011;13718;50.922;5.346;2022-07-22T09:36:26;3.78;;;1.77;;
25913;SDS011;13718;50.922;5.346;2022-07-22T09:38:52;4.88;;;1.75;;
25913;SDS011;13718;50.922;5.346;2022-07-22T09:41:18;4.70;;;1.67;;
25913;SDS011;13718;50.922;5.346;2022-07-22T09:43:44;6.13;;;1.75;;
25913;SDS011;13718;50.922;5.346;2022-07-22T09:46:10;2.75;;;1.58;;
25913;SDS011;13718;50.922;5.346;2022-07-22T09:48:37;5.75;;;1.70;;
25913;SDS011;13718;50.922;5.346;2022-07-22T09:51:03;4.68;;;1.77;;
25913;SDS011;13718;50.922;5.346;2022-07-22T09:53:30;6.60;;;1.70;;
25913;SDS011;13718;50.922;5.346;2022-07-22T09:56:00;4.90;;;1.58;;
25913;SDS011;13718;50.922;5.346;2022-07-22T09:58:28;5.50;;;1.67;;
25913;SDS011;13718;50.922;5.346;2022-07-22T10:00:54;4.28;;;1.80;;
25913;SDS011;13718;50.922;5.346;2022-07-22T10:03:28;6.70;;;2.00;;
25913;SDS011;13718;50.922;5.346;2022-07-22T10:05:56;6.30;;;2.10;;
25913;SDS011;13718;50.922;5.346;2022-07-22T10:08:23;5.95;;;1.92;;
25913;SDS011;13718;50.922;5.346;2022-07-22T10:10:51;4.35;;;1.63;;
25913;SDS011;13718;50.922;5.346;2022-07-22T10:13:18;7.22;;;2.35;;
25913;SDS011;13718;50.922;5.346;2022-07-22T10:15:44;6.22;;;1.80;;
25913;SDS011;13718;50.922;5.346;2022-07-22T10:18:14;6.55;;;1.90;;
25913;SDS011;13718;50.922;5.346;2022-07-22T10:20:41;7.18;;;1.95;;
25913;SDS011;13718;50.922;5.346;2022-07-22T10:23:08;6.25;;;1.80;;
25913;SDS011;13718;50.922;5.346;2022-07-22T10:25:50;8.27;;;2.40;;
25913;SDS011;13718;50.922;5.346;2022-07-22T10:28:27;4.95;;;2.00;;
25913;SDS011;13718;50.922;5.346;2022-07-22T10:33:52;6.43;;;2.28;;
25913;SDS011;13718;50.922;5.346;2022-07-22T10:36:40;7.10;;;2.05;;
25913;SDS011;13718;50.922;5.346;2022-07-22T10:39:09;5.72;;;2.00;;
25913;SDS011;13718;50.922;5.346;2022-07-22T10:41:36;5.20;;;2.20;;
25913;SDS011;13718;50.922;5.346;2022-07-22T10:44:04;10.60;;;2.75;;
25913;SDS011;13718;50.922;5.346;2022-07-22T10:49:15;6.40;;;2.55;;
25913;SDS011;13718;50.922;5.346;2022-07-22T10:52:08;9.63;;;2.95;;
25913;SDS011;13718;50.922;5.346;2022-07-22T10:54:33;5.45;;;2.25;;
25913;SDS011;13718;50.922;5.346;2022-07-22T10:57:29;9.43;;;2.53;;
25913;SDS011;13718;50.922;5.346;2022-07-22T10:59:56;6.55;;;2.53;;
25913;SDS011;13718;50.922;5.346;2022-07-22T11:02:21;8.75;;;2.58;;
25913;SDS011;13718;50.922;5.346;2022-07-22T11:04:49;6.53;;;2.10;;
25913;SDS011;13718;50.922;5.346;2022-07-22T11:07:14;7.78;;;2.60;;
25913;SDS011;13718;50.922;5.346;2022-07-22T11:09:40;8.48;;;2.53;;
25913;SDS011;13718;50.922;5.346;2022-07-22T11:12:11;10.63;;;2.58;;
25913;SDS011;13718;50.922;5.346;2022-07-22T11:14:38;4.65;;;2.28;;
25913;SDS011;13718;50.922;5.346;2022-07-22T11:17:04;10.52;;;2.30;;
25913;SDS011;13718;50.922;5.346;2022-07-22T11:19:35;6.22;;;2.30;;
25913;SDS011;13718;50.922;5.346;2022-07-22T11:22:05;6.03;;;2.20;;
25913;SDS011;13718;50.922;5.346;2022-07-22T11:24:32;7.75;;;2.40;;
25913;SDS011;13718;50.922;5.346;2022-07-22T11:26:58;6.60;;;2.65;;
25913;SDS011;13718;50.922;5.346;2022-07-22T11:29:34;4.95;;;2.15;;
25913;SDS011;13718;50.922;5.346;2022-07-22T11:32:03;9.48;;;2.65;;
25913;SDS011;13718;50.922;5.346;2022-07-22T11:34:30;4.38;;;2.00;;
25913;SDS011;13718;50.922;5.346;2022-07-22T11:36:56;5.30;;;1.88;;
25913;SDS011;13718;50.922;5.346;2022-07-22T11:39:24;7.35;;;2.35;;
25913;SDS011;13718;50.922;5.346;2022-07-22T11:41:52;5.45;;;2.70;;
25913;SDS011;13718;50.922;5.346;2022-07-22T11:44:21;7.30;;;2.53;;
25913;SDS011;13718;50.922;5.346;2022-07-22T11:46:48;4.22;;;2.20;;
25913;SDS011;13718;50.922;5.346;2022-07-22T11:49:16;8.52;;;2.30;;
25913;SDS011;13718;50.922;5.346;2022-07-22T11:51:42;6.35;;;2.25;;
25913;SDS011;13718;50.922;5.346;2022-07-22T11:54:08;6.60;;;2.17;;
25913;SDS011;13718;50.922;5.346;2022-07-22T11:56:34;6.35;;;2.25;;
25913;SDS011;13718;50.922;5.346;2022-07-22T11:59:01;6.80;;;2.33;;
25913;SDS011;13718;50.922;5.346;2022-07-22T12:01:30;7.00;;;2.83;;
25913;SDS011;13718;50.922;5.346;2022-07-22T12:04:10;7.72;;;2.55;;
25913;SDS011;13718;50.922;5.346;2022-07-22T12:06:38;9.10;;;2.55;;
25913;SDS011;13718;50.922;5.346;2022-07-22T12:09:06;5.68;;;2.40;;
25913;SDS011;13718;50.922;5.346;2022-07-22T12:11:35;5.93;;;2.40;;
25913;SDS011;13718;50.922;5.346;2022-07-22T12:14:09;5.22;;;2.30;;
25913;SDS011;13718;50.922;5.346;2022-07-22T12:16:37;3.90;;;2.20;;
25913;SDS011;13718;50.922;5.346;2022-07-22T12:19:11;5.93;;;2.38;;
25913;SDS011;13718;50.922;5.346;2022-07-22T12:24:15;8.50;;;2.42;;
25913;SDS011;13718;50.922;5.346;2022-07-22T12:26:49;6.88;;;2.70;;
25913;SDS011;13718;50.922;5.346;2022-07-22T12:29:15;4.55;;;2.63;;
25913;SDS011;13718;50.922;5.346;2022-07-22T12:31:49;4.50;;;2.58;;
25913;SDS011;13718;50.922;5.346;2022-07-22T12:34:16;8.35;;;2.60;;
25913;SDS011;13718;50.922;5.346;2022-07-22T12:36:43;6.45;;;2.63;;
25913;SDS011;13718;50.922;5.346;2022-07-22T12:39:20;5.28;;;2.20;;
25913;SDS011;13718;50.922;5.346;2022-07-22T12:41:50;7.30;;;2.03;;
25913;SDS011;13718;50.922;5.346;2022-07-22T12:44:19;3.85;;;2.00;;
25913;SDS011;13718;50.922;5.346;2022-07-22T12:46:55;5.97;;;2.15;;
25913;SDS011;13718;50.922;5.346;2022-07-22T12:49:22;5.18;;;2.53;;
25913;SDS011;13718;50.922;5.346;2022-07-22T12:52:05;8.50;;;2.15;;
25913;SDS011;13718;50.922;5.346;2022-07-22T12:54:32;9.30;;;2.50;;
25913;SDS011;13718;50.922;5.346;2022-07-22T12:56:59;4.70;;;2.13;;
25913;SDS011;13718;50.922;5.346;2022-07-22T12:59:25;8.77;;;2.20;;
25913;SDS011;13718;50.922;5.346;2022-07-22T13:01:50;4.75;;;2.15;;
25913;SDS011;13718;50.922;5.346;2022-07-22T13:04:16;6.88;;;2.55;;
25913;SDS011;13718;50.922;5.346;2022-07-22T13:06:41;5.32;;;2.42;;
25913;SDS011;13718;50.922;5.346;2022-07-22T13:09:07;9.48;;;1.98;;
25913;SDS011;13718;50.922;5.346;2022-07-22T13:11:33;7.45;;;2.45;;
25913;SDS011;13718;50.922;5.346;2022-07-22T13:14:04;6.55;;;2.47;;
25913;SDS011;13718;50.922;5.346;2022-07-22T13:16:30;6.50;;;2.20;;
25913;SDS011;13718;50.922;5.346;2022-07-22T13:18:56;5.35;;;2.20;;
25913;SDS011;13718;50.922;5.346;2022-07-22T13:21:22;5.85;;;2.10;;
25913;SDS011;13718;50.922;5.346;2022-07-22T13:23:47;3.97;;;2.03;;
25913;SDS011;13718;50.922;5.346;2022-07-22T13:26:13;3.90;;;2.47;;
25913;SDS011;13718;50.922;5.346;2022-07-22T13:28:38;5.13;;;2.38;;
25913;SDS011;13718;50.922;5.346;2022-07-22T13:31:04;4.78;;;2.13;;
25913;SDS011;13718;50.922;5.346;2022-07-22T13:33:29;4.47;;;1.98;;
25913;SDS011;13718;50.922;5.346;2022-07-22T13:35:55;5.10;;;2.17;;
25913;SDS011;13718;50.922;5.346;2022-07-22T13:38:21;4.57;;;2.25;;
25913;SDS011;13718;50.922;5.346;2022-07-22T13:40:46;10.13;;;2.97;;
25913;SDS011;13718;50.922;5.346;2022-07-22T13:43:16;6.22;;;2.30;;
25913;SDS011;13718;50.922;5.346;2022-07-22T13:45:43;5.35;;;2.60;;
25913;SDS011;13718;50.922;5.346;2022-07-22T13:48:08;7.90;;;2.60;;
25913;SDS011;13718;50.922;5.346;2022-07-22T13:50:34;5.10;;;2.42;;
25913;SDS011;13718;50.922;5.346;2022-07-22T13:53:00;8.13;;;2.65;;
25913;SDS011;13718;50.922;5.346;2022-07-22T13:55:25;7.57;;;2.75;;
25913;SDS011;13718;50.922;5.346;2022-07-22T13:57:51;5.88;;;2.60;;
25913;SDS011;13718;50.922;5.346;2022-07-22T14:00:17;6.65;;;3.00;;
25913;SDS011;13718;50.922;5.346;2022-07-22T14:02:44;7.57;;;2.40;;
25913;SDS011;13718;50.922;5.346;2022-07-22T14:05:09;7.63;;;2.20;;
25913;SDS011;13718;50.922;5.346;2022-07-22T14:07:35;5.20;;;2.22;;
25913;SDS011;13718;50.922;5.346;2022-07-22T14:10:01;4.35;;;2.20;;
25913;SDS011;13718;50.922;5.346;2022-07-22T14:12:27;9.88;;;2.40;;
25913;SDS011;13718;50.922;5.346;2022-07-22T14:14:53;8.77;;;2.63;;
25913;SDS011;13718;50.922;5.346;2022-07-22T14:17:18;5.30;;;2.40;;
25913;SDS011;13718;50.922;5.346;2022-07-22T14:19:44;4.35;;;2.42;;
25913;SDS011;13718;50.922;5.346;2022-07-22T14:22:09;4.93;;;2.60;;
25913;SDS011;13718;50.922;5.346;2022-07-22T14:24:35;5.47;;;2.65;;
25913;SDS011;13718;50.922;5.346;2022-07-22T14:27:01;5.90;;;2.40;;
25913;SDS011;13718;50.922;5.346;2022-07-22T14:29:26;5.53;;;2.40;;
25913;SDS011;13718;50.922;5.346;2022-07-22T14:31:52;4.43;;;2.30;;
25913;SDS011;13718;50.922;5.346;2022-07-22T14:34:17;4.78;;;2.83;;
25913;SDS011;13718;50.922;5.346;2022-07-22T14:36:43;6.03;;;2.92;;
25913;SDS011;13718;50.922;5.346;2022-07-22T14:39:09;8.02;;;2.65;;
25913;SDS011;13718;50.922;5.346;2022-07-22T14:41:34;7.18;;;3.20;;
25913;SDS011;13718;50.922;5.346;2022-07-22T14:44:00;6.93;;;3.00;;
25913;SDS011;13718;50.922;5.346;2022-07-22T14:46:26;6.20;;;2.70;;
25913;SDS011;13718;50.922;5.346;2022-07-22T14:48:51;6.43;;;2.55;;
25913;SDS011;13718;50.922;5.346;2022-07-22T14:51:20;6.30;;;3.10;;